EGMD/LYX METAR and TAF weather

Enter ICAO airport designator
Station Type Date Time Source
EGMD METAR 2022/01/26 20:20 UTC NOAA

EGMD 262020Z AUTO 25007KT 9999 OVC027/// 05/02 Q1031


Station Type Date Time Source
EGMD Decoded METAR 2022/01/26 20:20 UTC NOAA

Lydd Airport , United Kingdom (EGMD) 50-57N 000-56E
Jan 26, 2022 - 03:20 PM EST / 2022.01.26 2020 UTC
Wind: from the WSW (250 degrees) at 8 MPH (7 KT):0
Visibility: greater than 7 mile(s):0
Sky conditions: overcast
Temperature: 41 F (5 C)
Dew Point: 35 F (2 C)
Relative Humidity: 80%
Pressure (altimeter): 30.45 in. Hg (1031 hPa)
ob: EGMD 262020Z AUTO 25007KT 9999 OVC027/// 05/02 Q1031
cycle: 20

Station Type Date Time Source
EGMD TAF UTC NOAA

Error!

Example: see airport list